ADDS METAR Data INFO
IDs: Format: Raw Decoded Include TAF

Data at: 1142 UTC 17 Jul 2018

KLNN 171135Z AUTO 36004KT 7SM OVC015 23/20 A2990 RMK AO1 T02310196
KLNN 171115Z AUTO 00000KT 7SM OVC013 23/20 A2989 RMK AO1 T02320200
KLNN 171055Z AUTO 36004KT 7SM OVC013 23/20 A2988 RMK AO1 T02310203
KLNN 171035Z AUTO 35003KT 10SM SCT013 23/20 A2988 RMK AO1 T02300200
KLNN 171015Z AUTO 35003KT 10SM SCT013 23/20 A2987 RMK AO1 T02300198
KLNN 170955Z AUTO 35004KT 10SM CLR 23/20 A2987 RMK AO1 T02300199
KLNN 170935Z AUTO 34005KT 10SM CLR 23/20 A2986 RMK AO1 T02320196
KLNN 170915Z AUTO 34005KT 10SM CLR 24/19 A2986 RMK AO1 T02350193
KLNN 170855Z AUTO 33005KT 10SM CLR 24/19 A2986 RMK AO1 T02370193
KLNN 170835Z AUTO 31008KT 10SM CLR 24/20 A2986 RMK AO1 T02380196
KLNN 170815Z AUTO 26006KT 10SM BKN013 24/21 A2986 RMK AO1 T02390214
KLNN 170755Z AUTO 25006KT 10SM OVC013 24/21 A2986 RMK AO1 T02370212
KLNN 170735Z AUTO 24003KT 10SM BKN013 22/20 A2985 RMK AO1 T02210199
KLNN 170715Z AUTO 21003KT 10SM BKN013 BKN037 22/20 A2986 RMK AO1 T02200198
KLNN 170655Z AUTO 00000KT 10SM SCT032 SCT039 SCT060 22/20 A2986 RMK AO1 T02220198
KLNN 170635Z AUTO 21003KT 10SM SCT032 SCT060 22/20 A2986 RMK AO1 T02220198
KLNN 170615Z AUTO 23004KT 10SM CLR 22/20 A2986 RMK AO1 T02220196
KLNN 170555Z AUTO 20003KT 10SM SCT070 22/20 A2986 RMK AO1 T02210196 10246 20220
KLNN 170535Z AUTO 21003KT 10SM BKN060 22/20 A2986 RMK AO1 T02220197
KLNN 170515Z AUTO 22003KT 10SM SCT060 22/20 A2987 RMK AO1 T02220198
KLNN 170455Z AUTO 23003KT 10SM CLR 22/20 A2986 RMK AO1 T02210198 403060216
KLNN 170435Z AUTO 22004KT 10SM CLR 22/20 A2986 RMK AO1 T02210198
KLNN 170415Z AUTO 21005KT 10SM CLR 22/20 A2986 RMK AO1 T02200196
KLNN 170355Z AUTO 19004KT 10SM CLR 22/20 A2987 RMK AO1 T02200196
KLNN 170335Z AUTO 20003KT 10SM CLR 22/20 A2987 RMK AO1 T02210197
KLNN 170315Z AUTO 00000KT 10SM CLR 22/20 A2988 RMK AO1 T02230200
KLNN 170255Z AUTO 19003KT 10SM CLR 23/20 A2988 RMK AO1 T02250200
KLNN 170235Z AUTO 20003KT 10SM CLR 23/20 A2987 RMK AO1 T02260201
KLNN 170215Z AUTO 20004KT 10SM SCT032 SCT040 23/20 A2986 RMK AO1 T02270203
KLNN 170155Z AUTO 20006KT 10SM BKN032 BKN042 BKN070 23/20 A2987 RMK AO1 T02270202
KLNN 170135Z AUTO 18004KT 10SM OVC042 23/21 A2987 RMK AO1 T02270205
KLNN 170115Z AUTO 13004KT 10SM BKN042 BKN055 BKN100 23/21 A2986 RMK AO1 T02300205
KLNN 170055Z AUTO 15003KT 10SM SCT010 SCT038 BKN100 24/21 A2986 RMK AO1 T02350210
KLNN 170035Z AUTO 15003KT 7SM SCT010 SCT015 OVC041 24/21 A2987 RMK AO1 T02420210
KLNN 170015Z AUTO 11005KT 10SM BKN041 BKN055 OVC070 24/21 A2985 RMK AO1 T02440208
KLNN 162355Z AUTO 11004KT 10SM SCT050 BKN065 OVC095 25/21 A2986 RMK AO1 T02470207 10306 20247
KLNN 162335Z AUTO 00000KT 10SM SCT040 BKN055 OVC085 25/21 A2987 RMK AO1 T02480206
KLNN 162315Z AUTO 09003KT 10SM SCT031 OVC040 25/21 A2987 RMK AO1 T02500207
KLNN 162255Z AUTO 19006G15KT 10SM SCT024 SCT033 BKN043 26/21 A2986 RMK AO1 T02640208
KLNN 162235Z AUTO 00000KT 10SM SCT045 SCT050 SCT070 28/21 A2985 RMK AO1 T02810206
KLNN 162215Z AUTO 00000KT 10SM SCT043 SCT050 BKN070 29/19 A2985 RMK AO1 T02850193
KLNN 162155Z AUTO 00000KT 10SM BKN070 BKN095 29/20 A2985 RMK AO1 T02920197
KLNN 162135Z AUTO 26004KT 10SM SCT060 30/20 A2986 RMK AO1 T02950198
KLNN 162115Z AUTO 23004KT 10SM CLR 29/20 A2987 RMK AO1 T02890199
KLNN 162055Z AUTO 27004KT 10SM CLR 27/21 A2987 RMK AO1 T02720209
KLNN 162035Z AUTO 31005KT 10SM CLR 27/21 A2988 RMK AO1 T02700212
KLNN 162015Z AUTO 29007KT 10SM SCT049 SCT060 28/21 A2988 RMK AO1 T02750206
KLNN 161955Z AUTO 30006KT 10SM SCT055 28/21 A2987 RMK AO1 T02830207
KLNN 161935Z AUTO 32004KT 10SM CLR 29/20 A2988 RMK AO1 T02860199
KLNN 161915Z AUTO 31004KT 10SM CLR 30/20 A2988 RMK AO1 T03000200
KLNN 161855Z AUTO 30006KT 10SM CLR 30/19 A2989 RMK AO1 T03030190
KLNN 161835Z AUTO 30005KT 10SM CLR 31/19 A2989 RMK AO1 T03050187
KLNN 161815Z AUTO 30006KT 10SM SCT070 SCT085 30/19 A2991 RMK AO1 T03000187
KLNN 161755Z AUTO 28006KT 10SM CLR 30/19 A2992 RMK AO1 T02990188 10300 20248
KLNN 161735Z AUTO 28005KT 10SM SCT050 30/19 A2993 RMK AO1 T03000192
KLNN 161715Z AUTO 30006KT 10SM SCT050 29/20 A2994 RMK AO1 T02880195
KLNN 161655Z AUTO 29005KT 10SM CLR 29/20 A2995 RMK AO1 T02880198
KLNN 161635Z AUTO 29008KT 10SM CLR 28/20 A2996 RMK AO1 T02830199
KLNN 161615Z AUTO 29009KT 10SM CLR 28/20 A2996 RMK AO1 T02830196
KLNN 161555Z AUTO 29009KT 10SM CLR 28/20 A2996 RMK AO1 T02780196
KLNN 161535Z AUTO 28009KT 10SM CLR 30/20 A2996 RMK AO1 T02950197
KLNN 161515Z AUTO 27007KT 10SM CLR 29/19 A2996 RMK AO1 T02930188
KLNN 161455Z AUTO 27009KT 10SM CLR 29/18 A2996 RMK AO1 T02880183
KLNN 161435Z AUTO 27008KT 10SM SCT120 29/19 A2996 RMK AO1 T02870186
KLNN 161415Z AUTO 24007KT 10SM SCT120 29/19 A2996 RMK AO1 T02900188
KLNN 161355Z AUTO 21005KT 10SM CLR 28/19 A2996 RMK AO1 T02820193
KLNN 161335Z AUTO 22006KT 10SM CLR 28/20 A2996 RMK AO1 T02750198
KLNN 161315Z AUTO 21004KT 10SM CLR 27/20 A2996 RMK AO1 T02690198
KLNN 161255Z AUTO 20004KT 10SM CLR 26/20 A2996 RMK AO1 T02630196
KLNN 161235Z AUTO 21004KT 10SM CLR 25/19 A2996 RMK AO1 T02510192
KLNN 161215Z AUTO 21003KT 10SM CLR 25/19 A2996 RMK AO1 T02500190
KLNN 161155Z AUTO 21003KT 10SM CLR 25/19 A2996 RMK AO1 T02490191 10249 20216
KLNN 161135Z AUTO 21004KT 10SM CLR 24/19 A2996 RMK AO1 T02360185
KLNN 161115Z AUTO 19004KT 10SM CLR 23/19 A2996 RMK AO1 T02290185
KLNN 161055Z AUTO 18003KT 10SM CLR 22/18 A2996 RMK AO1 T02210182
KLNN 161035Z AUTO 00000KT 10SM CLR 22/18 A2997 RMK AO1 T02160180
KLNN 161015Z AUTO 00000KT 10SM CLR 22/18 A2996 RMK AO1 T02170178
KLNN 160955Z AUTO 00000KT 10SM CLR 22/18 A2996 RMK AO1 T02180178
KLNN 160935Z AUTO 00000KT 10SM CLR 22/18 A2996 RMK AO1 T02190178
KLNN 160915Z AUTO 00000KT 10SM CLR 22/18 A2996 RMK AO1 T02190178
KLNN 160855Z AUTO 00000KT 10SM CLR 23/18 A2996 RMK AO1 T02250178
KLNN 160835Z AUTO 20003KT 10SM CLR 23/18 A2996 RMK AO1 T02250179
KLNN 160815Z AUTO 22004KT 10SM CLR 23/18 A2996 RMK AO1 T02260179
KLNN 160755Z AUTO 00000KT 10SM CLR 23/18 A2996 RMK AO1 T02270178
KLNN 160735Z AUTO 21003KT 10SM CLR 23/18 A2996 RMK AO1 T02270180
KLNN 160715Z AUTO 20003KT 10SM CLR 23/18 A2996 RMK AO1 T02270180
KLNN 160655Z AUTO 00000KT 10SM CLR 23/18 A2997 RMK AO1 T02270180
KLNN 160635Z AUTO 00000KT 10SM CLR 23/18 A2997 RMK AO1 T02280181
KLNN 160615Z AUTO 18003KT 10SM CLR 23/18 A2997 RMK AO1 T02300182
KLNN 160555Z AUTO 00000KT 10SM CLR 23/18 A2997 RMK AO1 T02310182 10286 20220
KLNN 160535Z AUTO 21003KT 10SM CLR 24/18 A2997 RMK AO1 T02350182
KLNN 160515Z AUTO 00000KT 10SM CLR 24/18 A2997 RMK AO1 T02380180
KLNN 160455Z AUTO 00000KT 10SM CLR 24/18 A2997 RMK AO1 T02400176 403020203
KLNN 160435Z AUTO 20003KT 10SM CLR 24/18 A2997 RMK AO1 T02360177
KLNN 160415Z AUTO 00000KT 10SM CLR 23/18 A2997 RMK AO1 T02290181
KLNN 160355Z AUTO 00000KT 10SM CLR 22/19 A2996 RMK AO1 T02230185
KLNN 160335Z AUTO 00000KT 10SM CLR 23/18 A2997 RMK AO1 T02280180
KLNN 160315Z AUTO 00000KT 10SM CLR 23/18 A2997 RMK AO1 T02270181
KLNN 160255Z AUTO 00000KT 10SM CLR 23/18 A2997 RMK AO1 T02310176
KLNN 160235Z AUTO 00000KT 10SM CLR 23/18 A2997 RMK AO1 T02340181
KLNN 160215Z AUTO 00000KT 10SM CLR 24/18 A2996 RMK AO1 T02370176
KLNN 160155Z AUTO 00000KT 10SM CLR 24/17 A2996 RMK AO1 T02430174
KLNN 160135Z AUTO 00000KT 10SM CLR 24/17 A2996 RMK AO1 T02430172
KLNN 160115Z AUTO 00000KT 10SM CLR 25/17 A2995 RMK AO1 T02480173
KLNN 160055Z AUTO 00000KT 10SM CLR 26/18 A2996 RMK AO1 T02550178
KLNN 160035Z AUTO 00000KT 10SM CLR 26/18 A2996 RMK AO1 T02620178
KLNN 160015Z AUTO 00000KT 10SM CLR 27/18 A2996 RMK AO1 T02730182
KLNN 152355Z AUTO 00000KT 10SM CLR 29/16 A2996 RMK AO1 T02860164 10302 20286